createdAt,value
2023-02-14T00:03:25.739Z,74.07
2023-02-14T00:07:49.769Z,73.85
2023-02-14T00:12:13.748Z,74.13
2023-02-14T00:16:37.655Z,74.23
2023-02-14T00:21:05.211Z,74.66
2023-02-14T00:25:29.169Z,74.27
2023-02-14T00:29:53.077Z,74.58
2023-02-14T00:34:18.035Z,74.40
2023-02-14T00:38:35.949Z,74.49
2023-02-14T00:42:59.915Z,74.35
2023-02-14T00:47:23.954Z,74.48
2023-02-14T00:51:47.960Z,74.65
2023-02-14T00:56:02.186Z,74.65
2023-02-14T01:00:25.994Z,74.62
2023-02-14T01:04:49.928Z,74.91
2023-02-14T01:09:14.116Z,74.91
2023-02-14T01:13:38.146Z,75.28
2023-02-14T01:18:01.913Z,75.47
2023-02-14T01:22:25.885Z,75.87
2023-02-14T01:26:49.843Z,75.46
2023-02-14T01:31:14.450Z,75.52
2023-02-14T01:35:38.550Z,75.25
2023-02-14T01:40:02.844Z,75.13
2023-02-14T01:44:29.961Z,75.14
2023-02-14T01:48:53.983Z,75.02
2023-02-14T01:53:30.047Z,75.20
2023-02-14T01:57:56.778Z,75.38
2023-02-14T02:02:20.849Z,75.32
2023-02-14T02:06:55.810Z,75.22
2023-02-14T02:11:19.764Z,75.46
2023-02-14T02:15:43.639Z,75.48
2023-02-14T02:20:29.033Z,75.28
2023-02-14T02:25:05.087Z,75.52
2023-02-14T02:29:32.394Z,75.30
2023-02-14T02:34:04.086Z,75.42
2023-02-14T02:38:33.676Z,75.38
2023-02-14T02:43:00.434Z,75.49
2023-02-14T02:47:27.074Z,75.62
2023-02-14T02:51:29.191Z,75.87
2023-02-14T02:55:51.083Z,75.28
2023-02-14T03:00:13.638Z,75.36
2023-02-14T03:04:36.272Z,75.51
2023-02-14T03:09:00.367Z,75.74
2023-02-14T03:13:34.694Z,76.12
2023-02-14T03:18:05.475Z,76.36
2023-02-14T03:22:38.381Z,76.15
2023-02-14T03:27:21.033Z,76.07
2023-02-14T03:32:03.471Z,76.00
2023-02-14T03:36:28.571Z,75.94
2023-02-14T03:41:04.600Z,76.12
2023-02-14T03:45:28.815Z,76.20
2023-02-14T03:49:45.598Z,76.55
2023-02-14T03:54:09.502Z,76.44
2023-02-14T03:58:39.269Z,76.66
2023-02-14T04:03:12.005Z,76.75
2023-02-14T04:07:36.259Z,76.30
2023-02-14T04:12:00.120Z,76.09
2023-02-14T04:16:24.073Z,76.27
2023-02-14T04:20:48.160Z,76.19
2023-02-14T04:25:12.126Z,76.78
2023-02-14T04:29:36.556Z,77.08
2023-02-14T04:33:53.657Z,76.92
2023-02-14T04:38:10.349Z,76.42
2023-02-14T04:42:34.273Z,76.40
2023-02-14T04:47:26.863Z,76.49
2023-02-14T04:51:56.694Z,76.15
2023-02-14T04:56:21.751Z,76.30
2023-02-14T05:00:46.005Z,76.65
2023-02-14T05:05:10.006Z,76.48
2023-02-14T05:09:33.898Z,76.53
2023-02-14T05:13:57.836Z,76.35
2023-02-14T05:18:15.759Z,76.68
2023-02-14T05:22:40.001Z,76.85
2023-02-14T05:27:04.385Z,76.68
2023-02-14T05:31:28.595Z,76.58
2023-02-14T05:35:52.248Z,76.60
2023-02-14T05:40:36.227Z,76.53
2023-02-14T05:45:00.122Z,76.25
2023-02-14T05:49:24.174Z,76.73
2023-02-14T05:53:48.076Z,76.38
2023-02-14T05:58:13.091Z,76.31
2023-02-14T06:02:37.066Z,76.57
2023-02-14T06:07:01.048Z,76.76
2023-02-14T06:11:26.260Z,76.62
2023-02-14T06:15:50.222Z,76.72
2023-02-14T06:20:14.237Z,76.76
2023-02-14T06:24:38.128Z,76.97
2023-02-14T06:29:09.795Z,76.40
2023-02-14T06:33:33.948Z,76.65
2023-02-14T06:37:57.992Z,76.75
2023-02-14T06:42:21.975Z,76.94
2023-02-14T06:46:46.065Z,76.97
2023-02-14T06:51:10.109Z,76.85
2023-02-14T06:55:33.964Z,76.92
2023-02-14T06:59:57.925Z,77.00
2023-02-14T07:04:21.910Z,77.13
2023-02-14T07:08:45.932Z,76.93
2023-02-14T07:13:10.019Z,77.15
2023-02-14T07:17:33.912Z,76.80
2023-02-14T07:21:51.397Z,76.94
2023-02-14T07:26:15.476Z,76.52
2023-02-14T07:30:39.534Z,76.47
2023-02-14T07:35:03.513Z,76.44
2023-02-14T07:39:27.538Z,76.68
2023-02-14T07:43:57.061Z,76.38
2023-02-14T07:48:21.070Z,76.41
2023-02-14T07:52:45.347Z,76.20
2023-02-14T07:57:09.286Z,75.74
2023-02-14T08:01:33.318Z,75.61
2023-02-14T08:05:57.539Z,75.84
2023-02-14T08:10:21.658Z,75.18
2023-02-14T08:14:47.006Z,75.22
2023-02-14T08:19:10.958Z,74.77
2023-02-14T08:23:34.960Z,74.54
2023-02-14T08:27:59.612Z,74.43
2023-02-14T08:32:24.046Z,74.54
2023-02-14T08:36:48.272Z,74.10
2023-02-14T08:41:13.391Z,73.74
2023-02-14T08:45:37.276Z,73.84
2023-02-14T08:50:02.156Z,73.49
2023-02-14T08:54:26.407Z,73.13
2023-02-14T08:58:44.458Z,72.36
2023-02-14T09:03:08.778Z,72.34
2023-02-14T09:07:25.125Z,72.21
2023-02-14T09:11:49.894Z,71.79
2023-02-14T09:16:10.547Z,71.12
2023-02-14T09:20:34.516Z,70.96
2023-02-14T09:24:58.583Z,70.47
2023-02-14T09:29:42.408Z,70.39
2023-02-14T09:34:08.946Z,69.66
2023-02-14T09:38:52.919Z,69.14
2023-02-14T09:43:17.084Z,67.95
2023-02-14T09:47:41.095Z,68.02
2023-02-14T09:52:17.232Z,68.26
2023-02-14T09:56:51.214Z,68.31
2023-02-14T10:01:26.798Z,67.35
2023-02-14T10:05:53.634Z,66.36
2023-02-14T10:10:22.219Z,66.09
2023-02-14T10:14:51.970Z,65.08
2023-02-14T10:19:21.743Z,64.75
2023-02-14T10:23:54.401Z,62.45
2023-02-14T10:28:25.276Z,62.44
2023-02-14T10:32:53.085Z,61.64
2023-02-14T10:37:25.838Z,61.19
2023-02-14T10:41:58.639Z,61.07
2023-02-14T10:46:38.497Z,59.86
2023-02-14T10:51:05.119Z,60.17
2023-02-14T10:55:32.981Z,59.39
2023-02-14T10:59:59.657Z,59.80
2023-02-14T11:04:30.471Z,59.22
2023-02-14T11:08:57.288Z,58.90
2023-02-14T11:13:34.538Z,53.91
2023-02-14T11:18:09.354Z,57.48
2023-02-14T11:22:33.420Z,57.97
2023-02-14T11:26:58.384Z,57.62
2023-02-14T11:31:35.815Z,57.69
2023-02-14T11:36:02.528Z,56.96
2023-02-14T11:40:30.398Z,56.59
2023-02-14T11:44:57.386Z,56.31
2023-02-14T11:49:37.707Z,56.45
2023-02-14T11:54:02.774Z,55.80
2023-02-14T11:58:38.834Z,54.96
2023-02-14T12:03:08.415Z,54.94
2023-02-14T12:07:32.916Z,54.81
2023-02-14T12:12:05.691Z,54.88
2023-02-14T12:16:30.238Z,54.96
2023-02-14T12:20:58.540Z,55.25
2023-02-14T12:25:38.156Z,54.21
2023-02-14T12:30:11.240Z,54.21
2023-02-14T12:34:35.228Z,53.86
2023-02-14T12:38:59.127Z,54.17
2023-02-14T12:43:30.434Z,54.21
2023-02-14T12:48:06.492Z,55.12
2023-02-14T12:52:37.872Z,55.25
2023-02-14T12:57:10.541Z,54.70
2023-02-14T13:01:40.372Z,55.10
2023-02-14T13:06:18.521Z,55.11
2023-02-14T13:10:52.140Z,55.04
2023-02-14T13:15:25.059Z,55.45
2023-02-14T13:20:04.250Z,55.76
2023-02-14T13:24:26.424Z,55.73
2023-02-14T13:28:53.383Z,56.19
2023-02-14T13:33:17.583Z,56.01
2023-02-14T13:37:41.720Z,55.98
2023-02-14T13:42:05.620Z,56.04
2023-02-14T13:46:32.539Z,56.56
2023-02-14T13:50:59.609Z,56.63
2023-02-14T13:55:35.054Z,56.47
2023-02-14T14:00:04.846Z,56.22
2023-02-14T14:04:35.170Z,56.91
2023-02-14T14:09:01.174Z,56.89
2023-02-14T14:13:26.497Z,57.19
2023-02-14T14:17:59.414Z,57.35
2023-02-14T14:22:41.692Z,57.22
2023-02-14T14:27:08.599Z,57.47
2023-02-14T14:31:32.650Z,57.65
2023-02-14T14:36:07.989Z,57.45
2023-02-14T14:40:33.073Z,57.79
2023-02-14T14:44:57.166Z,57.85
2023-02-14T14:49:33.186Z,57.80
2023-02-14T14:53:50.299Z,57.93
2023-02-14T14:58:14.239Z,58.00
2023-02-14T15:02:39.265Z,58.12
2023-02-14T15:07:15.324Z,58.47
2023-02-14T15:11:46.679Z,58.57
2023-02-14T15:16:04.282Z,58.63
2023-02-14T15:20:29.354Z,59.01
2023-02-14T15:24:56.244Z,59.26
2023-02-14T15:29:38.161Z,59.25
2023-02-14T15:34:09.380Z,59.60
2023-02-14T15:38:33.473Z,59.96
2023-02-14T15:42:59.084Z,60.18
2023-02-14T15:47:26.036Z,60.46
2023-02-14T15:51:50.025Z,60.62
2023-02-14T15:56:13.942Z,61.11
2023-02-14T16:00:38.600Z,61.80
2023-02-14T16:05:05.431Z,62.19
2023-02-14T16:09:12.015Z,62.45
2023-02-14T16:13:37.160Z,62.44
2023-02-14T16:18:01.276Z,62.41
2023-02-14T16:22:37.396Z,62.32
2023-02-14T16:27:01.371Z,62.30
2023-02-14T16:31:18.310Z,62.61
2023-02-14T16:35:42.461Z,63.22
2023-02-14T16:40:06.477Z,63.21
2023-02-14T16:44:30.309Z,63.28
2023-02-14T16:48:54.294Z,63.79
2023-02-14T16:53:18.679Z,64.12
2023-02-14T16:57:42.549Z,64.23
2023-02-14T17:02:06.367Z,64.81
2023-02-14T17:06:30.682Z,64.79
2023-02-14T17:10:54.712Z,64.98
2023-02-14T17:15:18.608Z,65.05
2023-02-14T17:19:42.645Z,65.15
2023-02-14T17:24:15.786Z,64.81
2023-02-14T17:28:39.712Z,65.10
2023-02-14T17:32:56.335Z,65.50
2023-02-14T17:37:20.254Z,65.91
2023-02-14T17:41:50.999Z,65.79
2023-02-14T17:46:14.898Z,66.19
2023-02-14T17:50:38.924Z,66.01
2023-02-14T17:55:03.056Z,66.54
2023-02-14T17:59:27.062Z,66.97
2023-02-14T18:03:50.933Z,66.54
2023-02-14T18:08:15.025Z,66.91
2023-02-14T18:12:38.947Z,66.88
2023-02-14T18:17:25.735Z,66.94
2023-02-14T18:21:52.666Z,67.62
2023-02-14T18:26:17.312Z,67.56
2023-02-14T18:30:41.222Z,67.96
2023-02-14T18:35:05.165Z,67.80
2023-02-14T18:39:29.359Z,67.89
2023-02-14T18:43:53.453Z,67.99
2023-02-14T18:48:17.458Z,68.25
2023-02-14T18:53:01.920Z,68.87
2023-02-14T18:57:25.906Z,68.13
2023-02-14T19:01:52.592Z,68.44
2023-02-14T19:05:56.406Z,68.75
2023-02-14T19:10:20.344Z,69.09
2023-02-14T19:14:47.202Z,68.92
2023-02-14T19:19:14.203Z,68.86
2023-02-14T19:23:41.356Z,69.00
2023-02-14T19:28:05.497Z,69.19
2023-02-14T19:32:29.447Z,69.59
2023-02-14T19:36:59.292Z,69.33
2023-02-14T19:41:25.480Z,69.37
2023-02-14T19:45:49.799Z,69.53
2023-02-14T19:50:13.878Z,69.76
2023-02-14T19:54:37.783Z,70.29
2023-02-14T19:59:01.776Z,71.30
2023-02-14T20:03:26.589Z,70.96
2023-02-14T20:08:10.524Z,71.19
2023-02-14T20:12:54.442Z,70.98
2023-02-14T20:17:18.436Z,70.74
2023-02-14T20:21:45.416Z,70.50
2023-02-14T20:26:09.384Z,70.60
2023-02-14T20:30:33.518Z,70.93
2023-02-14T20:34:58.032Z,70.57
2023-02-14T20:39:22.903Z,70.11
2023-02-14T20:43:47.700Z,69.89
2023-02-14T20:48:11.722Z,70.14
2023-02-14T20:52:35.591Z,70.15
2023-02-14T20:57:00.699Z,69.76
2023-02-14T21:01:47.289Z,69.54
2023-02-14T21:06:19.940Z,69.47
2023-02-14T21:10:33.859Z,69.26
2023-02-14T21:14:57.910Z,69.70
2023-02-14T21:19:22.324Z,69.52
2023-02-14T21:23:46.317Z,69.63
2023-02-14T21:28:10.264Z,69.65
2023-02-14T21:32:34.229Z,69.99
2023-02-14T21:36:58.197Z,70.02
2023-02-14T21:41:22.105Z,69.78
2023-02-14T21:45:44.626Z,69.88
2023-02-14T21:50:07.085Z,69.78
2023-02-14T21:54:31.017Z,69.80
2023-02-14T21:58:55.095Z,70.30
2023-02-14T22:03:18.948Z,70.19
2023-02-14T22:07:43.611Z,69.93
2023-02-14T22:12:10.538Z,69.72
2023-02-14T22:16:20.594Z,69.89
2023-02-14T22:20:44.742Z,70.77
2023-02-14T22:25:08.715Z,70.76
2023-02-14T22:29:32.684Z,69.73
2023-02-14T22:33:56.583Z,70.21
2023-02-14T22:38:20.557Z,70.29
2023-02-14T22:42:44.445Z,71.09
2023-02-14T22:47:08.515Z,71.04
2023-02-14T22:51:32.450Z,71.21
2023-02-14T22:55:56.519Z,71.31
2023-02-14T23:00:20.446Z,71.87
2023-02-14T23:04:47.783Z,72.32
2023-02-14T23:09:12.637Z,71.55
2023-02-14T23:13:35.270Z,71.95
2023-02-14T23:17:57.788Z,72.38
2023-02-14T23:22:22.080Z,72.53
2023-02-14T23:26:46.050Z,72.24
2023-02-14T23:31:10.288Z,72.23
2023-02-14T23:35:34.267Z,72.13
2023-02-14T23:39:56.611Z,72.33
2023-02-14T23:44:20.593Z,72.35
2023-02-14T23:48:45.298Z,72.15
2023-02-14T23:53:09.300Z,72.10
2023-02-14T23:57:33.262Z,72.16
